events-overview

Kinetic Half

 

Overall Men

4/22/2006 09:00PM

** Results are for the private use of participants and are the Intellectual Property of Set Up Events. Unauthorized use of these results is prohibited.

Place Bib Age NAME CITY/STATE Rank SWIM Rank T1 Rank BIKE Rank T2 Rank RUN PENALTY TIME DQ
115630CHRISTOPHER MARTINLAWRENCEVILLE NJ400:26:57400:00:56102:11:201000:01:01301:25:06 04:05:18 
213233MARTIN LAMONTAGNE LACASSEST ELIE D''ORFORD, Q VT200:26:56200:00:45202:20:06700:00:51101:23:59 04:12:34 
318420CHARLESÉTIENNE PLOURDESHERBROOKE1600:29:24500:00:57602:25:05300:00:37401:26:03 04:22:05 
47927WIN ELLIOTWASHINGTON DC1300:28:411600:01:131202:30:17900:01:01501:26:16 04:27:25 
51225FELIPE BASTOSGAINESVILLE FL300:26:57300:00:481002:28:02100:00:34801:31:25 04:27:44 
620538JEFFREY SHILTWINSTONSALEM NC4200:32:311800:01:15802:25:40500:00:451201:34:18 04:34:26 
721934DAVID STEELESTAFFORD VA2900:31:152100:01:181602:32:032300:01:12601:29:54 04:35:40 
86839CLARK DARRAHMIDLOTHIAN VA4000:32:296500:02:00402:24:487800:01:531901:36:13 04:37:21 
921136DWAYNE SMITHHANOVER PA3000:32:127600:02:122802:36:357100:01:49201:24:59 04:37:45 
101333JOHN BEHMEHUNTERSVILLE NC5400:34:021900:01:15702:25:132200:01:122101:36:16 04:37:55 
1110220CATHERINE HOGANBEDFORD, QUÉBEC, CAN1100:27:54100:00:443402:37:322700:01:16901:33:04 04:40:27 
1212739JAN KRISKAMOUNT AIRY NC5100:33:514300:01:47502:24:533400:01:202501:38:39 04:40:28 
1322835RHYS THOMASELLICOTT CITY MD1200:28:23900:01:023302:37:263200:01:181001:33:32 04:41:39 
14324ADAM ALPERMEDIA PA2100:29:501400:01:073002:36:564400:01:271101:34:03 04:43:22 
15839SCOTT BALDWINRESTON VA3500:32:222800:01:251802:33:334500:01:281301:34:41 04:43:27 
1610630RYAN HYSLOPVIRGINIA BEACH VA2300:30:273300:01:333102:37:024100:01:252001:36:14 04:46:39 
1712548JEFFREY KOTECKIWATERFORD CT8700:36:018400:02:191402:31:236100:01:421801:35:23 04:46:46 
184932JONATHAN CONKLINHUNT VALLEY MD6200:34:307300:02:104502:39:333100:01:18701:30:03 04:47:32 
1926738ROBERT JAMESFREDERICKSBURG VA9400:36:432400:01:222502:35:351900:01:101501:34:44 04:49:33 
2026037JIMI YOUNGLAINGSBURG MI5500:34:056300:01:591302:30:427300:01:513801:41:32 04:50:08 
212825DANIEL BRIENZAARLINGTON VA6100:34:266700:02:041102:29:061100:01:035401:45:19 04:51:56 
2216425JOSHUA MCKEEVERASHBURN VA3700:32:265600:01:572102:34:081800:01:104001:42:28 04:52:07 
239639HOPE HALLRESTON VA4600:32:544400:01:505102:42:315200:01:331601:34:50 04:53:35 
245530GREG CORASINITIDENVER CO7200:34:584800:01:542402:35:071700:01:093601:40:49 04:53:55 
255438JERALD COOKGAITHERSBURG MD2200:30:201000:01:033702:37:58400:00:434701:44:04 04:54:06 
2610329GALEN HOLLANDASHEVILLE NC2800:31:093000:01:305802:43:383000:01:172201:37:25 04:54:57 
2720043JOHN SHAFERSTAFFORD VA6800:34:436000:01:581702:32:577200:01:514501:43:35 04:55:03 
282334DANIEL BOURDAGHSBRISTOW VA3800:32:28700:01:004802:40:135600:01:373501:40:46 04:56:02 
2921540ANDREW SNYDERLANCASTER PA2500:30:4310400:02:443202:37:255100:01:324601:43:59 04:56:22 
3022229JOSHUA STROZESKIHARRISONBURG VA6700:34:3916100:03:501902:33:49800:01:005101:44:38 04:57:55 
PlaceBibAgeNAMECITY/STATERankSWIMRankT1RankBIKERankT2RankRUNPENALTYTIMEDQ
3111922BRANDON KELLYROANOKE VA7500:35:049900:02:372902:36:521400:01:072701:39:1600:04:0004:58:55 
3211440DAVID JONESCULPEPER VA11200:37:542500:01:232002:34:065700:01:385201:44:41 04:59:40 
333634MATTHEW CALARCOCHARLOTTESVILLE VA5300:33:583600:01:392602:36:062500:01:145901:46:50 04:59:44 
341923ANDREW BLATECKYARLINGTON VA1900:29:44600:00:593602:37:564300:01:276801:49:44 04:59:49 
3513929VINCENT LINDSLEYDERBY CT12400:38:4212800:03:103502:37:468500:02:013701:41:07 05:02:43 
3615949FRANK MAZURLUSBY MD4400:32:359700:02:325702:43:339500:02:104201:43:01 05:03:51 
374636CHRISTOPHER COBBAUSTIN TX3400:32:223400:01:382202:34:328800:02:048201:53:46 05:04:19 
3816047JOHN MAZURALEXANDRIA VA3900:32:2811000:02:527302:45:577700:01:524101:42:35 05:05:42 
3926343JUAN CONDENEW CANAAN CT12200:38:419600:02:326102:44:168400:01:592601:38:41 05:06:08 
4011047GEORGE JACOBSLAUREL MD9800:36:5721900:08:502702:36:2319100:04:333201:40:08 05:06:49 
417621JOHN DOUGLASBIRMINGHAM AL12800:38:559400:02:316002:44:087600:01:512901:39:30 05:06:53 
4221226DAVID SMITHPORT REPUBLIC VA7000:34:451300:01:074602:39:483500:01:207101:50:01 05:06:58 
439539CHRISTOPHER HAASWILLIAMSBURG VA5600:34:066400:02:003802:37:586500:01:453101:39:5500:12:0005:07:42 
4417621RYAN NICKELLANNAPOLIS MD2700:30:5113500:03:179002:48:4915900:03:083901:41:48 05:07:51 
459037JULIE GIBBONSFAIRFAX VA7600:35:103100:01:315902:43:502800:01:165601:46:15 05:08:01 
4615128SCOTT MACBETHWASHINGTON DC2400:30:2910900:02:525302:42:563700:01:227701:51:15 05:08:52 
472533THANE BOYSENRALEIGH NC6900:34:445500:01:566902:45:083600:01:215501:45:56 05:09:04 
4817835GREG OLSONWASHINGTON DC11000:37:429000:02:269102:48:528200:01:572401:38:38 05:09:33 
491842MARGARET BISHOPMIDDLEBURG VA15700:41:4311300:02:575002:42:2410800:02:203301:40:12 05:09:34 
508641KAREN FRALENSTAFFORD VA4900:33:097900:02:145502:43:217900:01:557001:49:51 05:10:28 
516430ROBERT CRISTMANSALISBURY NC6300:34:317500:02:118202:47:4713200:02:374801:44:18 05:11:22 
5212049JAMES KETTENHOFENSAINT CHARLES IL8000:35:2918600:04:319702:50:3215500:02:542301:38:34 05:11:59 
539826EDMUND HASKINSMARTINSVILLE VA1700:29:3113000:03:138602:48:1114300:02:446401:48:45 05:12:21 
5419434MARIE SANDROCKALEXANDRIA VA17000:43:105900:01:589902:51:115500:01:361401:34:43 05:12:36 
555228MARK CONOVERARLINGTON VA           05:13:09 
56745MICHAEL BALDWINRICHMOND VA12300:38:428300:02:184102:39:015400:01:367801:51:55 05:13:30 
575627JEREMY CORNMANSEWICKLEY PA4700:32:586100:01:597102:45:4013400:02:407601:50:55 05:14:10 
5823822NICHOLAS VAN DYKECHARLESTON SC6500:34:3518500:04:276702:45:016600:01:456301:48:44 05:14:31 
5926537JULIE DUKESPASADENA MD10600:37:254200:01:4710602:54:104800:01:293001:39:49 05:14:39 
60129JEFF ADAMSALEXANDRIA VA12700:38:5317700:04:138702:48:1218600:04:242801:39:17 05:14:56 
6124735SCOTT WEINHOLDARLINGTON VA8400:35:5516900:04:028902:48:3011600:02:264901:44:25 05:15:16 
PlaceBibAgeNAMECITY/STATERankSWIMRankT1RankBIKERankT2RankRUNPENALTYTIMEDQ
6223120ANDERS CHRISTOFFERSONGREENVILLE DE10300:37:083200:01:334902:41:044200:01:268401:54:33 05:15:41 
6316334AMY MCKEEWASHINGTON DC11100:37:4610300:02:439502:49:4314400:02:444401:43:10 05:16:05 
64651RANJIT BABOOLALTORONTO, ONTARIO6400:34:324500:01:526402:44:5012500:02:348001:52:46 05:16:32 
6513727JULIE LESTYANVA BEACH VA500:27:021200:01:066502:44:581600:01:0812602:03:36 05:17:49 
667742KENNETH DOWNERYORKTOWN VA8800:36:192700:01:245202:42:403800:01:229501:56:52 05:18:35 
6725345DAVID WIESENHAHNSPRINGFIELD VA9100:36:3410500:02:456302:44:254600:01:288701:55:07 05:20:17 
6815335JOHN MAGUIREPOTOMAC FALLS VA8300:35:4716700:04:008402:47:5312600:02:347501:50:28 05:20:40 
6913332ELVY LAPOINTESTELIED''ORFORD13000:38:582300:01:2213202:59:172000:01:113401:40:23 05:21:09 
7012925ADRIANNE KROEPSCHWASHINGTON DC11300:37:5511500:02:5811402:55:3111000:02:214301:43:06 05:21:49 
7126829JOEL TOMSCHARLOTTESVILLE VA7400:35:0313900:03:214402:39:3113600:02:4011302:01:16 05:21:49 
7211247KIP JAWISHFREDERICK MD7900:35:262900:01:256202:44:242900:01:1710701:59:52 05:22:22 
7321739RICHARD STALLINGSFAIRFAX VA12500:38:457800:02:1410102:52:316200:01:426101:47:16 05:22:25 
7422334SHANNON SUMMERLINROANOKE VA900:27:44800:01:0115803:05:582100:01:115701:46:33 05:22:25 
756141TIM COULSONROCKVILLE MD10900:37:348700:02:235602:43:2312100:02:289801:57:51 05:23:37 
7619235JEFF ROWESARLINGTON VA7800:35:1813200:03:158302:47:493900:01:239201:56:21 05:24:04 
7717222MATTHEW MOYECHAPEL HILL NC3600:32:2411100:02:564302:39:292600:01:1412902:04:0600:04:0005:24:07 
7819826PAUL SCHEGLOVFALLS CHURCH VA20000:47:3218400:04:273902:38:0620700:05:597201:50:10 05:26:12 
792736GREG BRAWNERAVON OH8500:35:5712700:03:096602:44:5912700:02:3510601:59:44 05:26:22 
8017137PETER MOUNTRUTHER GLEN VA9000:36:328800:02:2411602:55:4712900:02:376501:49:15 05:26:33 
8122434DAN SUMMERLINROANOKE VA100:25:484100:01:477202:45:538300:01:5715202:11:22 05:26:46 
8212813MATUS KRISKAMOUNT AIRY NC4500:32:5215000:03:3910302:53:069600:02:119101:56:13 05:27:59 
832639BILL BRACKMANVIRGINIA BEACH VA1800:29:429500:02:3216103:06:4014200:02:435801:46:41 05:28:16 
8411131DEAN JARRETTMARTINSVILLE VA16700:42:509200:02:2712602:56:573300:01:195301:44:46 05:28:17 
8522033SHAWN STEGALLGRANITE CITY IL15100:40:465300:01:568502:48:089100:02:058901:55:47 05:28:40 
8612336JAMES KNAACKARLINGTON VA15200:41:133700:01:407502:46:0211500:02:2510101:58:08 05:29:25 
873149KEVIN BROWNEHOWAD BEACH NY19300:45:5419400:04:527802:46:509300:02:096901:49:50 05:29:33 
8824246JOHN WALKERVIRGINIA BEACH VA8600:35:5810000:02:387602:46:1717600:03:5311202:00:59 05:29:42 
8915842TOM MAXWELLROCHESTER HILLS MI7300:35:0317900:04:194202:39:2216200:03:1114802:09:55 05:31:47 
90244RENEE ADAMSMANASSAS VA8900:36:3213800:03:207902:46:5815200:02:5211802:02:14 05:31:54 
917434MARK DISTEFANORED BANK NJ12900:38:5617600:04:1310502:53:5820400:05:286601:49:28 05:32:01 
922225MICAEL BOULETCOOKSHIRE, PQ5900:34:2113300:03:1514803:02:596700:01:467301:50:11 05:32:31 
PlaceBibAgeNAMECITY/STATERankSWIMRankT1RankBIKERankT2RankRUNPENALTYTIMEDQ
9313030ADAM KRUPPAVIRGINIA BEACH VA3100:32:142600:01:248802:48:255900:01:4114402:08:53 05:32:34 
9412623SEAN KRAMERDEVON PA18200:43:5418800:04:4011302:55:2813800:02:416001:47:07 05:33:48 
958719IRA GALLAGHERLEXINGTON VA8200:35:375400:01:5610802:54:529000:02:0510301:59:36 05:34:04 
9617443ANDY NAZWORTHNEW MARKET MD13800:39:335700:01:5712402:56:525000:01:328601:54:47 05:34:40 
976243WILLIAM CRAIGBUFORD GA20700:48:505800:01:584002:38:5714000:02:4212502:03:28 05:35:53 
9818842LAURA PRUSSINBLACKSBURG VA3200:32:1411200:02:5615003:03:171200:01:059401:56:44 05:36:14 
99536KRISTEN ASTORWASHINGTON DC12100:38:4117000:04:039802:50:537400:01:5111502:01:37 05:37:04 
10020232KEVIN SHAWASHBURN VA18900:45:0715600:03:4312202:56:389900:02:126701:49:40 05:37:19 
10125541JOSEPH WILCZYNSKICHEVY CHASE MD11900:38:325000:01:5510402:53:544700:01:2811702:01:49 05:37:37 
1026048RENE COTEMANAKIN SABOT VA14300:40:127100:02:0911102:55:196900:01:4710201:58:14 05:37:40 
10324626ADAM WATKINSWASHINGTON DC9200:36:3815300:03:409602:50:2313000:02:3713502:04:49 05:38:06 
10415036BILL LUECKRICHMOND VA7700:35:1214300:03:2612102:56:3017800:04:0111002:00:44 05:39:51 
1051743SAM BETHUNEVIRGINIA BEACH VA14700:40:2413600:03:1712302:56:5115600:02:559301:56:30 05:39:55 
10623434TERRY TURNERBEAVERDAM VA14600:40:238000:02:1513903:01:165800:01:418301:54:33 05:40:07 
1079431ANDREW GREVEMATHEWS VA16600:42:4714000:03:229402:49:4310600:02:1611902:02:17 05:40:23 
10824044DETLEF VIETENLEXINGTON PARK MD17300:43:1411800:03:007002:45:1810400:02:1514202:08:24 05:42:10 
10921839JAY STANLEYARLINGTON VA4100:32:308600:02:2010902:55:038700:02:0314902:10:56 05:42:50 
11015737TIM MAXEYURBANA MD2000:29:473900:01:4212502:56:5312000:02:2715402:12:09 05:42:56 
11111339DAVID JENKINSONCENTREVILLE VA10200:37:0614100:03:2311002:55:0817200:03:3912802:04:00 05:43:14 
1123536RALPH BUTLERCHESAPEAKE VA9600:36:474000:01:4514303:01:408000:01:5611402:01:34 05:43:41 
11314132JODY LOGARELKINS WV19000:45:2612000:03:0215703:05:246800:01:477401:50:21 05:45:58 
11416236JEAN MCGINLEYARLINGTON VA15000:40:4520500:05:2910702:54:4219600:04:4710902:00:25 05:46:06 
11513637MARTIN LENOIRGLEN ALLEN VA5200:33:574700:01:536802:45:064900:01:3017502:24:15 05:46:38 
1166737JOHN DALYNEW YORK NY16900:43:0320800:06:0513603:00:4420000:05:007901:51:57 05:46:47 
11711529JOHN KABLERVIRGINIA BEACH VA15400:41:2513700:03:1811802:56:0117300:03:4312202:02:52 05:47:16 
11824328KATY WALTERSVIRGINIA BEACH VA6600:34:369800:02:3211202:55:2711900:02:2715502:12:30 05:47:30 
1195042ROBERT CONLEYVIENNA VA18700:44:4912900:03:1210002:51:1912800:02:3513902:05:57 05:47:49 
1208533ERIK FLODENWASHINGTON DC10100:37:064600:01:5212002:56:141500:01:0815302:11:31 05:47:49 
12118334JOHN PERCHERKEBRISTOW VA20800:49:3014700:03:3015603:05:219400:02:106201:47:20 05:47:51 
12212237RYAN KLABUNDEVIENNA VA10000:37:0512200:03:0413703:00:5316300:03:1213102:04:16 05:48:28 
12323545DAVID TURVENEARLINGTON VA9300:36:418100:02:1715503:04:417000:01:4912402:03:21 05:48:47 
PlaceBibAgeNAMECITY/STATERankSWIMRankT1RankBIKERankT2RankRUNPENALTYTIMEDQ
12412452STEVE KNOTTVIRGINIA BEACH VA10400:37:125100:01:5514503:02:1913300:02:3913602:04:56 05:48:59 
12519334DAVID ROZELLEALEXANDRIA VA17200:43:128200:02:1711902:56:0113900:02:4113802:05:09 05:49:19 
12619039SANDRA RODGERSFAIRFAX VA14500:40:2312300:03:0715903:06:1810700:02:178101:53:4500:04:0005:49:48 
12716150DAN MCCLARYSEACREST FL13100:39:0119600:04:5614203:01:3120100:05:0110501:59:42 05:50:10 
12819139MICHAEL ROTHROCKHOCKESSIN DE9700:36:5711900:03:027402:45:5916700:03:2616902:20:51 05:50:13 
1292940MICHAEL BRODSKY 13300:39:108900:02:2512702:57:0611100:02:2214602:09:34 05:50:35 
130952MIKE BANNISTERCHARLOTTESVILLE VA14000:39:4918000:04:2015403:04:4119700:04:479601:57:42 05:51:16 
1314430SARA CISLERBLACKLICK OH10800:37:277700:02:1217503:12:284000:01:259901:57:53 05:51:24 
1321052DENNIS BARRRIDGE MD14200:40:1113100:03:1413302:59:2417700:03:5813702:05:01 05:51:46 
13313835MARK LEVYMANASQUAN NJ17900:43:3516300:03:539302:49:4020300:05:2714502:09:30 05:52:03 
1348020CHRISTOPHER ENSLEYWILMINGTON NC9500:36:4421700:07:2014903:03:0418300:04:1012002:02:25 05:53:41 
1359238PAMELA GOODMANHERNDON VA16000:41:514900:01:5417303:12:0214500:02:448801:55:34 05:54:02 
13620726ANDREW SHULERLEXINGTON VA17600:43:2419300:04:5114703:02:2912400:02:3411102:00:49 05:54:06 
13724546MICHAEL WARWICKFAIRFAX STATION VA5000:33:3612500:03:0918503:14:3317000:03:3510401:59:41 05:54:33 
13815545CHRIS MALONEMIDDLEBURG VA11700:38:016900:02:057702:46:3919300:04:4017202:23:22 05:54:46 
1393430CHRIS BUTLERATLANTA GA18800:45:0220700:06:0217703:12:4312200:02:305001:44:3100:04:0005:54:47 
1401552EDGAR BENNETTBURKE VA13400:39:1015400:03:4115203:03:3719800:04:4913302:04:25 05:55:41 
1418129RAYMOND FANCHERLOCUST GROVE VA19700:46:2117500:04:1213102:58:2012300:02:3113202:04:22 05:55:43 
1428949JANET GATESSMITHFIELD PA12600:38:4815200:03:4016403:07:4611800:02:2612302:03:10 05:55:48 
14318743AARON PRUSSINBLABKSBURG VA19900:46:3614900:03:3615103:03:2513500:02:4011602:01:45 05:58:00 
14420439MIKE SHIELSCOTTAGE GROVE WI9900:37:0415700:03:4311702:55:5910200:02:1516702:19:47 05:58:47 
1459742MARY ELLEN HASELDENSTAFFORD VA13900:39:417000:02:0817603:12:378100:01:5712102:02:28 05:58:49 
1467237PAUL DERRICKROANOKE VA16300:42:2615900:03:4717103:10:148900:02:0410802:00:21 05:58:50 
14714234KARYN LONGAPEX NC15500:41:2912400:03:0911502:55:4410100:02:1516102:17:09 05:59:43 
14810120JESSICA HICKSGRANITE CITY IL11500:38:0010700:02:4818003:13:0410500:02:1512702:03:54 05:59:59 
1494837CLAUDE CONDEGREAT FALLS VA18300:44:1321000:06:1116503:07:4918100:04:0710001:58:08 06:00:26 
15059 A.I.R.CONDITIONED 2600:30:442000:01:1719403:20:58200:00:3714102:06:57 06:00:31 
1514538BRIAN CLARKMARTINSBURG WV19400:45:5811400:02:579202:49:2418700:04:2716302:18:02 06:00:47 
15221441STEPHANIE SMITHRALEIGH NC13600:39:189100:02:2714103:01:3010000:02:1316402:19:09 06:04:35 
1537145GARY DEANQUANTICO VA22100:58:2821100:06:2819503:22:3315000:02:501701:35:05 06:05:23 
15414042GORDON LINNWALDORF MD    17403:12:2417500:03:5113002:04:11 06:05:25 
PlaceBibAgeNAMECITY/STATERankSWIMRankT1RankBIKERankT2RankRUNPENALTYTIMEDQ
15520833CARO SHULLARLINGTON VA10700:37:277400:02:1116803:09:406000:01:4116002:16:19 06:07:16 
15619950NORM SHAFERVIRGINIA BEACH VA14900:40:2918900:04:4115303:03:5311400:02:2415602:12:5900:04:0006:08:24 
15723061IRONMIKE TOWNSENDGGREENSBORO NC14100:40:0717300:04:0520203:26:3813700:02:409001:55:48 06:09:16 
15821633ETHAN SPINELLILEBANON CT18000:43:3914600:03:2813402:59:3516600:03:1716602:19:46 06:09:44 
15919653THOMAS SAULSBERYRESTON VA16200:42:2320200:05:1819603:23:1118500:04:208501:54:35 06:09:45 
16010544TODD HYLANDLOVETTSVILLE VA11400:37:5911600:02:5916603:08:2516900:03:3116202:17:48 06:10:40 
16124933RYAN WERLINGSPRINGFIELD VA14400:40:1416500:03:5518203:13:4217400:03:4914702:09:41 06:11:20 
1623730APRIL CANNONSHELBY NC16100:41:5912600:03:0918103:13:0514900:02:5014002:06:2000:04:0006:11:21 
163426EMILY ARCHIBALDCHAPEL HILL NC15900:41:4916000:03:4818403:14:2315300:02:5314302:08:50 06:11:41 
16417751PETER ODUNNEELLICOTT CITY MD13500:39:1621600:07:0017003:09:5719900:04:5015002:10:59 06:11:59 
1651636KAREN BERNHARDRICHMOND VA16500:42:4014500:03:2817203:11:3918000:04:0615902:15:05 06:16:55 
16611849DAVID KELLYROANOKE VA10500:37:1919800:05:048102:47:1218800:04:2919602:43:15 06:17:18 
1678446ROBERT FLEMINGAPEX NC5800:34:2010200:02:4213803:00:5914600:02:4818802:37:43 06:18:30 
1687021DARYL DAWSONANNAPOLIS MD13700:39:1914200:03:2320703:28:1916000:03:0913402:04:36 06:18:46 
16914623JONATHAN LOZONFLOLYDS KNOBS IN22201:00:3511700:03:0014603:02:2915400:02:5415802:13:27 06:22:23 
17013131ERIC LACEYOAKTON VA20600:48:358500:02:1914403:01:5716100:03:1018002:27:20 06:23:19 
17124846JANE WEISEMANBLACKSBURG, VA14800:40:2716600:03:5716703:08:458600:02:0318202:28:13 06:23:23 
17215434SALMAN MAHERFUQUAYVARINA NC20300:48:149300:02:2714003:01:177500:01:5118302:30:08 06:23:56 
1737845CHRIS ELLINGHAUSLEESBURG VA11600:38:0021300:06:3319103:20:0918900:04:3015102:11:0200:04:0006:24:12 
1744329JOHN CHRISTMASRICHMOND VA19200:45:4018300:04:2616203:06:5818400:04:1017102:23:21 06:24:33 
17525026ANDREW WESTHOUSELEXINGTON VA21300:51:1319000:04:4121803:50:30     06:25:40 
17618927ANDREW RAPACKEANNAPOLIS MD17700:43:2715100:03:3921303:42:3810900:02:209701:57:43 06:29:45 
17718030CLAIR PARRISHRICHMOND VA18100:43:4817400:04:0819903:24:3719000:04:3115702:13:14 06:30:17 
1783923BEN CHALFANTBLACKSBURG VA11800:38:1919500:04:5520303:26:479200:02:0617002:23:06 06:35:11Y
1793239PAM BURTONCONCORD NC18500:44:3519200:04:5119303:20:3616500:03:1317302:23:23 06:36:35 
1806320ANDREW CRAIPBUFORD GA17100:43:113800:01:4020503:27:286300:01:4517402:23:35 06:37:37 
18125826PUI MUNG WONGARLINGTON VA20100:47:477200:02:0919003:19:386400:01:4517802:26:29 06:37:45 
1822137EUGENE BORGIOLIMINEOLA NY21800:53:5119700:04:5716303:07:2720900:06:3418402:30:22 06:43:09 
1835334TODD COOKNEW BERN NC17800:43:3115500:03:4317903:12:5915700:03:0519502:42:39 06:45:55 
18411627MATT KARRPITTSBURGH PA19800:46:3520900:06:0820603:27:5020200:05:0616802:20:28 06:46:06 
18526146GUY ZANTINORFOLK VA18400:44:1621500:06:5721103:35:3619200:04:3416502:19:15 06:50:37 
PlaceBibAgeNAMECITY/STATERankSWIMRankT1RankBIKERankT2RankRUNPENALTYTIMEDQ
18614748PAUL LUCHACHESAPEAKE VA21200:51:0115800:03:4517803:12:4517900:04:0318902:39:21 06:50:54 
18716533MONIQUE MEANSWASHINGTON DC17400:43:1520000:05:0718603:16:2121000:06:5019202:40:10 06:51:41 
18814430STACEY LONGALEXANDRIA VA17500:43:2320600:05:5618703:16:2420500:05:5219102:40:08 06:51:41 
1895735FABIAN CORTESCHARLOTTESVILLE VA21100:50:4314400:03:2719703:23:2815100:02:5218502:31:51 06:52:18 
19017050CARL MORRISHOWBRONX NY21500:51:2521800:07:2219803:24:2519400:04:4117902:26:30 06:54:21 
1918249RAYMOND FANCHERLOCUST GROVE VA21600:52:406600:02:0420403:26:5611700:02:2618702:33:03 06:57:08 
19216828JESSICA MITCHELLALBANY NY21700:53:2818200:04:2520903:29:1216800:03:3018102:27:58 06:58:31 
19316923SEAN MORANVIRGINIA BEACH VA22000:56:5213400:03:1620003:25:211300:01:0618602:32:15 06:58:48 
19410844JOHN JACOBLEESBURG VA20200:48:0419100:04:4719203:20:2520600:05:5319302:40:17 06:59:25 
19513442LARS LARSONNEWPORT NEWS VA21900:56:5117200:04:0418903:17:5511300:02:2419402:40:21 07:01:33 
1967533TODD DOLELAWRENCE MA20400:48:2114800:03:3113503:00:1715800:03:0720303:06:25 07:01:39 
19725441ALAN WIGGSRALEIGH NC19500:46:0121400:06:5118303:13:4920800:06:1419902:49:10 07:02:03 
19823646BRIAN TYLERBRONX NY7100:34:5022000:08:5821503:45:0621100:08:1817602:25:03 07:02:13 
19910737JOANNA IP DURIEARLINGTON VA18600:44:3610800:02:5021903:51:099800:02:1217702:25:39 07:06:24 
20018167KENTON PATTIEANNANDALE VA16800:43:0320100:05:1021203:36:4614700:02:4819702:44:05 07:11:50 
20123239GREGG TOWSLEERALEIGH NC19100:45:3222100:11:1218803:16:2521200:09:5820002:49:38 07:12:44 
20212142DAVID KIDWELLSPOTSYLVANIA VA20500:48:2712100:03:0320103:26:029700:02:1220202:58:45 07:18:27 
20321025ALISON SMITHBETHESDA MD21400:51:1816200:03:5020803:28:5313100:02:3720102:54:00 07:20:37 
2047335KELLY DILLINGERWOODBRIDGE VA15300:41:2120300:05:1921403:43:3811200:02:2219802:49:05 07:21:43 
20517324KATI MUDDMONTGOMERY VILLAGE MD12000:38:3816800:04:0122003:57:4717100:03:3819002:39:34 07:23:35 
2064230MATT CHRISTENSENPITTSBURGH PA15800:41:4717800:04:1813002:58:1219500:04:45  00:04:00  
2079135DAVID GLOVERRESTON VA700:27:272200:01:21902:26:37600:00:50     
20820627JOHN SHILTWINSTONSALEM NC4800:33:096800:02:05302:23:552400:01:12     
20926634JEFF ICKESWINSTON-SALEM NC4300:32:311500:01:121502:31:585300:01:35     
21024437PETER WARNERARLINGTON VA6000:34:215200:01:555402:43:1410300:02:15     
21110037JOAN HEINZECHARLOTTE HALL MD21000:50:3418700:04:3221703:48:2414100:02:43     
21210429CASEY HUGHESPALMYRA VA800:27:3117100:04:0312802:57:3514800:02:49     
21399 TEAM HEINZE 20900:50:0219900:05:0621603:47:5516400:03:13     
21423748CHARLES UDEARDEN NC5700:34:1321200:06:3212902:57:4318200:04:08     
21526242DOUG MAROCCOMONTCLAIR VA1000:27:531100:01:042302:34:39       
2163033CHRISTOPHER BROERINGRESTON VA3300:32:153500:01:384702:40:11       
PlaceBibAgeNAMECITY/STATERankSWIMRankT1RankBIKERankT2RankRUNPENALTYTIMEDQ
2174150KEONI CHEFFENSRESTON VA13200:39:091700:01:148002:47:05       
2183340BETSY BUTLERFREDERICKSBURG VA1400:28:566200:01:5910202:52:40       
2196928KATHLEEN DAVISONRESTON VA1500:29:0718100:04:2416003:06:36       
22016724SHANNON MINGOBETHESDA MD600:27:0710100:02:3816903:09:50       
2216555LONNIE CRITTENDENALEXANDRIA VA15600:41:3016400:03:5521003:33:30       
22226427JUAN GARCIASTAFFORD CT16400:42:3410600:02:46         
22319550JON SASSERRALEIGH, NC19600:46:1020400:05:29         
22417928MARIANA PARGANAWASHINGTON DC8100:35:36           

** Results are for the private use of participants and are the Intellectual Property of Set Up Events. Unauthorized use of these results is prohibited.